Jester, Texas
Current Conditions -  °F | °C
As of 10:53 AM on Friday 19 Dec 2014 (Local Time) from KCRS Reporting Station
Overcast Overcast  
Wind Chill: 45°   Ceiling: 600
Heat Index: 49°   Visibility: 10mi
Dew Point: 46°   Wind: 8mph
Humidity: 90%   Direction: 30°NNE
Pressure: 30.18"   Gusts: NA
Location:  31.9458°N, 96.5713°W
Report Text: KCRS 191653Z AUTO 03007KT 10SM OVC006 09/08 A3018 RMK AO2 RAE23 SLP221 P0000 T00940078
Loading
Personal Weather Stations






























Interactive Weather Map New forecast layout! Learn more

10-Day Weather Forecast

Advertisements
Track Severe Weather on mobile